Time;durP1;ratioP1;P1;durP2;ratioP2;P2;SDS_P1;SDS_P2;PMS_P1;PMS_P2;Temp;Humidity;BMP_temperature;BMP_pressure;BME280_temperature;BME280_humidity;BME280_pressure;Samples;Min_cycle;Max_cycle;Signal;HPM_P1;HPM_P2
2023/04/14 00:00:58;;;;;;;14.63;13.63;;;9.50;99.90;;;;;;5040952;28;20437;-42
2023/04/14 00:03:24;;;;;;;14.20;13.20;;;9.50;99.90;;;;;;5059973;28;20248;-46
2023/04/14 00:05:49;;;;;;;13.83;12.90;;;9.50;99.90;;;;;;5060790;28;20740;-45
2023/04/14 00:08:15;;;;;;;14.47;13.37;;;9.40;99.90;;;;;;5060454;28;20244;-44
2023/04/14 00:10:41;;;;;;;14.30;13.40;;;9.40;99.90;;;;;;5059972;28;20177;-44
2023/04/14 00:13:06;;;;;;;14.00;13.20;;;9.40;99.90;;;;;;5060870;28;20785;-46
2023/04/14 00:15:32;;;;;;;14.73;13.70;;;9.30;99.90;;;;;;5059258;28;20193;-43
2023/04/14 00:17:58;;;;;;;13.83;12.90;;;9.30;99.90;;;;;;5059520;28;20191;-41
2023/04/14 00:20:23;;;;;;;13.90;13.10;;;9.30;99.90;;;;;;5060834;28;20218;-42
2023/04/14 00:22:49;;;;;;;13.70;12.80;;;9.30;99.90;;;;;;5060528;28;20235;-41
2023/04/14 00:25:15;;;;;;;13.83;12.90;;;9.30;99.90;;;;;;5059290;28;20299;-44
2023/04/14 00:27:41;;;;;;;14.43;13.40;;;9.30;99.90;;;;;;5059021;28;20435;-44
2023/04/14 00:30:07;;;;;;;15.00;14.07;;;9.20;99.90;;;;;;5060329;28;20244;-42
2023/04/14 00:32:32;;;;;;;14.70;13.60;;;9.20;99.90;;;;;;5059684;28;20575;-46
2023/04/14 00:34:59;;;;;;;14.50;13.60;;;9.30;99.90;;;;;;5059677;28;20431;-45
2023/04/14 00:37:25;;;;;;;14.40;13.50;;;9.30;99.90;;;;;;5059646;28;20965;-42
2023/04/14 00:39:50;;;;;;;15.30;14.20;;;9.30;99.90;;;;;;5059924;28;20468;-43
2023/04/14 00:42:16;;;;;;;14.93;13.83;;;9.30;99.90;;;;;;5059761;28;21172;-43
2023/04/14 00:44:41;;;;;;;14.97;13.97;;;9.30;99.90;;;;;;5059335;28;20189;-43
2023/04/14 00:47:07;;;;;;;15.00;13.90;;;9.30;99.90;;;;;;5059456;28;20356;-43
2023/04/14 00:49:34;;;;;;;14.80;13.70;;;9.30;99.90;;;;;;5060276;28;20210;-43
2023/04/14 00:52:00;;;;;;;15.33;14.23;;;9.30;99.90;;;;;;5059893;28;20184;-41
2023/04/14 00:54:26;;;;;;;15.50;14.40;;;9.30;99.90;;;;;;5059301;28;20737;-44
2023/04/14 00:56:53;;;;;;;16.03;14.93;;;9.30;99.90;;;;;;5059725;28;20431;-44
2023/04/14 00:59:19;;;;;;;15.10;14.20;;;9.30;99.90;;;;;;5059013;28;20459;-42
2023/04/14 01:01:45;;;;;;;15.20;14.03;;;9.30;99.90;;;;;;5058904;28;20465;-44
2023/04/14 01:04:11;;;;;;;15.33;14.33;;;9.30;99.90;;;;;;5059819;28;20553;-44
2023/04/14 01:06:36;;;;;;;16.60;15.30;;;9.30;99.90;;;;;;5059114;28;20519;-43
2023/04/14 01:09:03;;;;;;;15.97;14.80;;;9.30;99.90;;;;;;5058806;28;20437;-43
2023/04/14 01:11:44;;;;;;;14.87;13.87;;;9.30;99.90;;;;;;5057871;28;20239;-44
2023/04/14 01:14:21;;;;;;;15.77;14.60;;;9.30;99.90;;;;;;5058541;28;20447;-44
2023/04/14 01:16:50;;;;;;;15.90;14.73;;;9.30;99.90;;;;;;5057546;28;20458;-45
2023/04/14 01:19:57;;;;;;;15.77;14.57;;;9.30;99.90;;;;;;5059273;28;20458;-43
2023/04/14 01:22:29;;;;;;;15.70;14.40;;;9.30;99.90;;;;;;5059067;28;20477;-42
2023/04/14 01:25:14;;;;;;;15.13;14.17;;;9.30;99.90;;;;;;5060082;28;20791;-45
2023/04/14 01:27:52;;;;;;;14.63;13.63;;;9.30;99.90;;;;;;5059062;28;21087;-44
2023/04/14 01:31:02;;;;;;;15.20;14.10;;;9.30;99.90;;;;;;5058989;28;20782;-42
2023/04/14 01:33:30;;;;;;;15.40;14.30;;;9.30;99.90;;;;;;5042614;28;20481;-45
2023/04/14 01:35:59;;;;;;;15.27;14.17;;;9.30;99.90;;;;;;5059074;28;20436;-42
2023/04/14 01:38:27;;;;;;;14.70;13.80;;;9.30;99.90;;;;;;5058250;28;20941;-43
2023/04/14 01:40:56;;;;;;;14.60;13.70;;;9.30;99.90;;;;;;5058595;28;20467;-40
2023/04/14 01:43:26;;;;;;;14.60;13.60;;;9.30;99.90;;;;;;5058122;28;20803;-44
2023/04/14 01:45:55;;;;;;;13.93;13.03;;;9.30;99.90;;;;;;5057493;28;20422;-41
2023/04/14 01:48:23;;;;;;;15.13;14.07;;;9.30;99.90;;;;;;5057567;28;20431;-43
2023/04/14 01:50:48;;;;;;;14.53;13.53;;;9.30;99.90;;;;;;5058361;28;21100;-45
2023/04/14 01:53:17;;;;;;;14.57;13.50;;;9.30;99.90;;;;;;5058284;28;20438;-49
2023/04/14 01:55:44;;;;;;;14.53;13.47;;;9.30;99.90;;;;;;5058990;28;20197;-42
2023/04/14 01:58:11;;;;;;;13.87;12.87;;;9.30;99.90;;;;;;5058929;28;20745;-42
2023/04/14 02:00:39;;;;;;;13.67;12.60;;;9.20;99.90;;;;;;5059103;28;20463;-43
2023/04/14 02:03:05;;;;;;;14.27;13.23;;;9.20;99.90;;;;;;5058730;28;21342;-46
2023/04/14 02:05:34;;;;;;;14.40;13.50;;;9.20;99.90;;;;;;5058096;28;20428;-41
2023/04/14 02:08:02;;;;;;;13.80;12.93;;;9.20;99.90;;;;;;5057812;28;20950;-44
2023/04/14 02:10:28;;;;;;;14.30;13.40;;;9.20;99.90;;;;;;5058217;28;20448;-43
2023/04/14 02:12:56;;;;;;;13.60;12.70;;;9.20;99.90;;;;;;5058724;28;20477;-47
2023/04/14 02:15:24;;;;;;;12.87;12.07;;;9.20;99.90;;;;;;5058431;28;20439;-45
2023/04/14 02:17:51;;;;;;;13.93;12.93;;;9.20;99.90;;;;;;5058458;28;21014;-44
2023/04/14 02:20:20;;;;;;;13.17;12.37;;;9.10;99.90;;;;;;5058188;28;20472;-46
2023/04/14 02:22:46;;;;;;;13.50;12.47;;;9.10;99.90;;;;;;5056657;28;20867;-44
2023/04/14 02:25:12;;;;;;;13.43;12.63;;;9.10;99.90;;;;;;5061092;28;20472;-44
2023/04/14 02:27:44;;;;;;;13.47;12.50;;;9.10;99.90;;;;;;5061851;28;20432;-41
2023/04/14 02:30:25;;;;;;;13.40;12.40;;;9.10;99.90;;;;;;5062210;28;20472;-42
2023/04/14 02:33:04;;;;;;;13.30;12.30;;;9.10;99.90;;;;;;5062539;28;20449;-44
2023/04/14 02:35:38;;;;;;;14.73;13.50;;;9.00;99.90;;;;;;5062257;28;20439;-43
2023/04/14 02:38:12;;;;;;;13.17;12.37;;;9.10;99.90;;;;;;5062125;28;20529;-44
2023/04/14 02:40:41;;;;;;;14.00;13.10;;;9.00;99.90;;;;;;5061817;28;20459;-43
2023/04/14 02:43:30;;;;;;;13.27;12.30;;;9.00;99.90;;;;;;5061868;28;20934;-41
2023/04/14 02:45:59;;;;;;;13.10;12.40;;;9.00;99.90;;;;;;5042135;28;20440;-45
2023/04/14 02:48:26;;;;;;;13.47;12.57;;;9.00;99.90;;;;;;5062469;28;20542;-45
2023/04/14 02:50:54;;;;;;;13.23;12.53;;;9.00;99.90;;;;;;5061377;28;20764;-47
2023/04/14 02:53:22;;;;;;;14.33;13.33;;;9.00;99.90;;;;;;5061752;28;20800;-43
2023/04/14 02:55:50;;;;;;;14.13;13.13;;;9.00;99.90;;;;;;5062218;28;20759;-42
2023/04/14 02:58:17;;;;;;;13.97;12.77;;;9.00;99.90;;;;;;5061356;28;20952;-43
2023/04/14 03:00:45;;;;;;;15.13;13.70;;;9.00;99.90;;;;;;5061107;28;20460;-44
2023/04/14 03:03:11;;;;;;;15.47;14.37;;;9.00;99.90;;;;;;5060755;28;20431;-43
2023/04/14 03:05:40;;;;;;;14.30;13.40;;;9.00;99.90;;;;;;5061139;28;20478;-44
2023/04/14 03:08:07;;;;;;;15.33;14.33;;;9.00;99.90;;;;;;5061954;28;20486;-44
2023/04/14 03:10:33;;;;;;;15.60;14.60;;;8.90;99.90;;;;;;5060933;28;20718;-45
2023/04/14 03:13:01;;;;;;;17.47;16.00;;;8.90;99.90;;;;;;5061365;28;20994;-43
2023/04/14 03:15:29;;;;;;;17.40;15.70;;;8.80;99.90;;;;;;5060744;28;20632;-43
2023/04/14 03:17:56;;;;;;;16.73;15.73;;;8.80;99.90;;;;;;5061494;28;20532;-44
2023/04/14 03:20:22;;;;;;;16.97;15.80;;;8.70;99.90;;;;;;5060937;28;20471;-44
2023/04/14 03:23:05;;;;;;;17.50;16.30;;;8.70;99.90;;;;;;5061260;28;20482;-42
2023/04/14 03:25:34;;;;;;;18.27;17.07;;;8.70;99.90;;;;;;5061132;28;20415;-42
2023/04/14 03:28:02;;;;;;;17.53;16.43;;;8.70;99.90;;;;;;5060681;28;20458;-42
2023/04/14 03:30:30;;;;;;;17.70;16.50;;;8.60;99.90;;;;;;5060665;28;20431;-42
2023/04/14 03:33:07;;;;;;;19.33;17.93;;;8.50;99.90;;;;;;5061061;28;21269;-42
2023/04/14 03:35:35;;;;;;;19.27;18.07;;;8.40;99.90;;;;;;5060688;28;20431;-44
2023/04/14 03:38:04;;;;;;;19.50;18.00;;;8.40;99.90;;;;;;5060691;28;20449;-47
2023/04/14 03:40:32;;;;;;;19.03;17.50;;;8.30;99.90;;;;;;5061003;28;20896;-42
2023/04/14 03:42:58;;;;;;;18.80;17.27;;;8.30;99.90;;;;;;5059955;28;20431;-41
2023/04/14 03:45:27;;;;;;;19.30;18.00;;;8.30;99.90;;;;;;5061173;28;21242;-42
2023/04/14 03:47:59;;;;;;;18.33;17.20;;;8.30;99.90;;;;;;5061104;28;20419;-43
2023/04/14 03:50:30;;;;;;;21.20;19.63;;;8.20;99.90;;;;;;5061166;28;20419;-44
2023/04/14 03:52:58;;;;;;;18.17;16.87;;;8.20;99.90;;;;;;5060009;28;20939;-46
2023/04/14 03:55:26;;;;;;;20.70;19.10;;;8.20;99.90;;;;;;5061259;28;20564;-41
2023/04/14 03:57:54;;;;;;;19.00;17.67;;;8.10;99.90;;;;;;5060130;28;20454;-41
2023/04/14 04:00:21;;;;;;;18.57;17.10;;;8.10;99.90;;;;;;5059869;28;20463;-44
2023/04/14 04:02:48;;;;;;;19.20;17.90;;;8.10;99.90;;;;;;5061343;28;20555;-44
2023/04/14 04:05:14;;;;;;;18.20;17.00;;;8.10;99.90;;;;;;5060138;28;20439;-42
2023/04/14 04:07:41;;;;;;;19.33;17.93;;;8.00;99.90;;;;;;5058609;28;20887;-42
2023/04/14 04:10:07;;;;;;;18.53;17.23;;;8.00;99.90;;;;;;5060407;28;20440;-45
2023/04/14 04:12:34;;;;;;;19.23;17.80;;;8.00;99.90;;;;;;5060538;28;21024;-46
2023/04/14 04:15:05;;;;;;;20.43;18.83;;;8.00;99.90;;;;;;5054458;28;20478;-42
2023/04/14 04:17:31;;;;;;;20.37;18.90;;;8.00;99.90;;;;;;5058581;28;20514;-41
2023/04/14 04:19:59;;;;;;;20.23;18.73;;;8.00;99.90;;;;;;5040401;28;20470;-42
2023/04/14 04:22:26;;;;;;;20.60;19.30;;;8.00;99.90;;;;;;5060610;28;20494;-43
2023/04/14 04:24:54;;;;;;;21.13;19.57;;;8.00;99.90;;;;;;5059664;28;20426;-42
2023/04/14 04:27:21;;;;;;;20.33;18.83;;;8.00;99.90;;;;;;5059562;28;21398;-45
2023/04/14 04:29:48;;;;;;;20.33;18.80;;;8.00;99.90;;;;;;5057905;28;20431;-43
2023/04/14 04:32:13;;;;;;;19.67;17.97;;;8.00;99.90;;;;;;5059740;28;20424;-43
2023/04/14 04:34:40;;;;;;;19.90;18.40;;;8.00;99.90;;;;;;5060310;28;20435;-43
2023/04/14 04:37:06;;;;;;;22.23;20.70;;;8.00;99.90;;;;;;5060141;28;20196;-43
2023/04/14 04:39:32;;;;;;;21.33;19.60;;;8.00;99.90;;;;;;5060667;28;21250;-45
2023/04/14 04:42:04;;;;;;;21.67;20.00;;;8.00;99.90;;;;;;5060461;28;20455;-41
2023/04/14 04:44:31;;;;;;;20.67;19.10;;;8.00;99.90;;;;;;5059965;28;20559;-45
2023/04/14 04:46:57;;;;;;;19.20;17.77;;;8.00;99.90;;;;;;5060866;28;20407;-44
2023/04/14 04:49:23;;;;;;;21.07;19.20;;;8.00;99.90;;;;;;5061386;28;20434;-46
2023/04/14 04:51:48;;;;;;;20.60;18.80;;;8.00;99.90;;;;;;5060140;28;20423;-44
2023/04/14 04:54:14;;;;;;;19.90;18.57;;;8.00;99.90;;;;;;5060805;28;20280;-46
2023/04/14 04:56:40;;;;;;;21.50;19.90;;;8.00;99.90;;;;;;5060183;28;21004;-45
2023/04/14 04:59:06;;;;;;;21.30;19.77;;;8.00;99.90;;;;;;5060049;28;20422;-42
2023/04/14 05:01:32;;;;;;;22.67;20.83;;;8.00;99.90;;;;;;5060040;28;20288;-43
2023/04/14 05:03:58;;;;;;;21.90;20.00;;;8.00;99.90;;;;;;5058502;28;20443;-45
2023/04/14 05:06:23;;;;;;;20.97;19.27;;;8.10;99.90;;;;;;5060066;28;20452;-43
2023/04/14 05:08:52;;;;;;;21.67;20.00;;;8.10;99.90;;;;;;5059003;28;20188;-43
2023/04/14 05:11:18;;;;;;;21.23;19.63;;;8.10;99.90;;;;;;5059492;28;20451;-44
2023/04/14 05:13:44;;;;;;;21.20;19.30;;;8.10;99.90;;;;;;5058938;28;20481;-43
2023/04/14 05:16:13;;;;;;;21.90;20.27;;;8.10;99.90;;;;;;5058253;28;21022;-43
2023/04/14 05:18:40;;;;;;;22.63;20.93;;;8.10;99.90;;;;;;5060045;28;20184;-45
2023/04/14 05:21:11;;;;;;;22.53;20.70;;;8.10;99.90;;;;;;5059114;28;20786;-43
2023/04/14 05:23:39;;;;;;;22.30;20.70;;;8.10;99.90;;;;;;5058176;28;20466;-46
2023/04/14 05:26:05;;;;;;;23.90;21.97;;;8.10;99.90;;;;;;5058645;28;20888;-43
2023/04/14 05:28:31;;;;;;;23.80;21.90;;;8.10;99.90;;;;;;5059313;28;20442;-48
2023/04/14 05:30:57;;;;;;;24.30;22.30;;;8.20;99.90;;;;;;5058295;28;20438;-42
2023/04/14 05:33:23;;;;;;;24.00;22.00;;;8.20;99.90;;;;;;5059144;28;20434;-44
2023/04/14 05:35:51;;;;;;;23.00;21.20;;;8.10;99.90;;;;;;5059277;28;20584;-44
2023/04/14 05:38:18;;;;;;;24.10;22.20;;;8.10;99.90;;;;;;5059119;28;20676;-44
2023/04/14 05:40:45;;;;;;;24.23;22.30;;;8.10;99.90;;;;;;5057608;28;20466;-43
2023/04/14 05:43:10;;;;;;;25.60;23.60;;;8.20;99.90;;;;;;5058969;28;20542;-43
2023/04/14 05:45:36;;;;;;;24.70;22.70;;;8.20;99.90;;;;;;5058036;28;20443;-45
2023/04/14 05:48:02;;;;;;;24.70;22.90;;;8.10;99.90;;;;;;5058433;28;20192;-42
2023/04/14 05:50:28;;;;;;;24.20;22.07;;;8.20;99.90;;;;;;5039561;28;20189;-42
2023/04/14 05:52:53;;;;;;;25.20;23.10;;;8.20;99.90;;;;;;5059008;28;20420;-43
2023/04/14 05:55:19;;;;;;;26.10;23.90;;;8.20;99.90;;;;;;5058460;28;20185;-44
2023/04/14 05:57:45;;;;;;;24.60;22.50;;;8.20;99.90;;;;;;5058350;28;20184;-44
2023/04/14 06:00:12;;;;;;;23.47;21.67;;;8.20;99.90;;;;;;5060605;28;20495;-45
2023/04/14 06:02:38;;;;;;;25.93;23.93;;;8.20;99.90;;;;;;5063190;28;20435;-44
2023/04/14 06:05:06;;;;;;;25.10;22.90;;;8.20;99.90;;;;;;5062846;28;20485;-42
2023/04/14 06:07:35;;;;;;;25.70;23.70;;;8.20;99.90;;;;;;5062537;28;20929;-50
2023/04/14 06:10:01;;;;;;;25.37;23.07;;;8.20;99.90;;;;;;5062006;28;21257;-45
2023/04/14 06:12:27;;;;;;;25.40;23.30;;;8.10;99.90;;;;;;5062662;28;20438;-45
2023/04/14 06:14:54;;;;;;;25.77;23.50;;;8.10;99.90;;;;;;5061952;28;20788;-45
2023/04/14 06:17:20;;;;;;;24.43;22.47;;;8.20;99.90;;;;;;5061743;28;20181;-45
2023/04/14 06:19:48;;;;;;;25.50;23.50;;;8.10;99.90;;;;;;5060885;28;20792;-43
2023/04/14 06:22:18;;;;;;;26.43;24.30;;;8.20;99.90;;;;;;5062114;28;20926;-41
2023/04/14 06:24:44;;;;;;;25.47;23.10;;;8.20;99.90;;;;;;5043712;28;20439;-44
2023/04/14 06:27:10;;;;;;;25.17;23.20;;;8.20;99.90;;;;;;5062702;28;20429;-43
2023/04/14 06:29:36;;;;;;;23.00;21.00;;;8.20;99.90;;;;;;5062871;28;20426;-43
2023/04/14 06:32:01;;;;;;;25.07;22.87;;;8.10;99.90;;;;;;5062548;28;20419;-43
2023/04/14 06:34:27;;;;;;;24.83;22.83;;;8.10;99.90;;;;;;5061295;28;20247;-45
2023/04/14 06:36:52;;;;;;;25.70;23.23;;;8.10;99.90;;;;;;5060304;28;20655;-42
2023/04/14 06:39:20;;;;;;;25.60;23.50;;;8.20;99.90;;;;;;5061629;28;20579;-45
2023/04/14 06:41:46;;;;;;;24.60;22.60;;;8.20;99.90;;;;;;5062597;28;20219;-44
2023/04/14 06:44:11;;;;;;;27.57;25.27;;;8.30;99.90;;;;;;5061900;28;20890;-44
2023/04/14 06:46:38;;;;;;;25.30;23.00;;;8.30;99.90;;;;;;5062030;28;20189;-42
2023/04/14 06:49:04;;;;;;;26.63;24.30;;;8.40;99.90;;;;;;5061439;28;20200;-43
2023/04/14 06:51:32;;;;;;;26.27;23.63;;;8.40;99.90;;;;;;5051709;28;20859;-40
2023/04/14 06:53:58;;;;;;;26.30;24.00;;;8.40;99.90;;;;;;5038577;28;20428;-42
2023/04/14 06:56:23;;;;;;;25.23;22.90;;;8.40;99.90;;;;;;5038487;28;20460;-42
2023/04/14 06:58:49;;;;;;;25.00;22.83;;;8.40;99.90;;;;;;5037149;28;20303;-42
2023/04/14 07:01:15;;;;;;;24.03;21.77;;;8.40;99.90;;;;;;5040956;28;20291;-44
2023/04/14 07:03:42;;;;;;;26.27;24.03;;;8.50;99.90;;;;;;5048075;28;20196;-43
2023/04/14 07:06:12;;;;;;;25.13;23.03;;;8.50;99.90;;;;;;5058746;28;20663;-41
2023/04/14 07:08:39;;;;;;;23.63;21.73;;;8.50;99.90;;;;;;5059534;28;20431;-44
2023/04/14 07:11:07;;;;;;;23.93;21.97;;;8.50;99.90;;;;;;5061034;28;20518;-46
2023/04/14 07:13:33;;;;;;;24.77;22.70;;;8.60;99.90;;;;;;5061260;28;20514;-44
2023/04/14 07:16:03;;;;;;;26.13;23.93;;;8.60;99.90;;;;;;5060874;28;21048;-41
2023/04/14 07:18:30;;;;;;;25.90;23.70;;;8.70;99.90;;;;;;5060929;28;20458;-45
2023/04/14 07:20:56;;;;;;;24.80;22.83;;;8.70;99.90;;;;;;5059212;28;21056;-47
2023/04/14 07:23:22;;;;;;;23.50;21.50;;;8.80;99.90;;;;;;5060067;28;20562;-43
2023/04/14 07:25:52;;;;;;;23.80;21.70;;;8.80;99.90;;;;;;5061385;28;20470;-43
2023/04/14 07:28:19;;;;;;;23.50;21.60;;;8.80;99.90;;;;;;5060189;28;20189;-47
2023/04/14 07:30:45;;;;;;;24.60;22.63;;;8.80;99.90;;;;;;5060534;28;20435;-44
2023/04/14 07:33:11;;;;;;;22.77;20.97;;;8.80;99.90;;;;;;5060821;28;20435;-46
2023/04/14 07:35:37;;;;;;;22.60;20.90;;;8.90;99.90;;;;;;5060255;28;20440;-45
2023/04/14 07:38:03;;;;;;;22.33;20.63;;;8.90;99.90;;;;;;5060894;28;20439;-44
2023/04/14 07:40:28;;;;;;;23.30;21.37;;;8.80;99.90;;;;;;5060041;28;20333;-45
2023/04/14 07:42:54;;;;;;;22.90;21.27;;;8.80;99.90;;;;;;5059249;28;20280;-45
2023/04/14 07:45:20;;;;;;;24.47;22.57;;;8.80;99.90;;;;;;5060834;28;20686;-47
2023/04/14 07:47:45;;;;;;;25.27;23.40;;;8.80;99.90;;;;;;5061124;28;20181;-44
2023/04/14 07:50:11;;;;;;;23.23;21.43;;;8.80;99.90;;;;;;5060672;28;20252;-47
2023/04/14 07:52:37;;;;;;;23.07;21.17;;;8.80;99.90;;;;;;5059716;28;20600;-43
2023/04/14 07:55:03;;;;;;;23.00;21.20;;;8.80;99.90;;;;;;5059906;28;21214;-49
2023/04/14 07:57:29;;;;;;;24.17;22.37;;;8.80;99.90;;;;;;5061041;28;20200;-47
2023/04/14 07:59:54;;;;;;;24.80;22.63;;;8.70;99.90;;;;;;5059586;28;20439;-47
2023/04/14 08:02:21;;;;;;;21.57;19.73;;;8.70;99.90;;;;;;5060240;28;20764;-44
2023/04/14 08:04:46;;;;;;;19.70;18.30;;;8.70;99.90;;;;;;5060646;28;20553;-45
2023/04/14 08:07:12;;;;;;;22.30;20.70;;;8.70;99.90;;;;;;5041919;28;20475;-47
2023/04/14 08:09:38;;;;;;;21.70;20.00;;;8.70;99.90;;;;;;5060377;28;20720;-45
2023/04/14 08:12:03;;;;;;;20.63;19.13;;;8.70;99.90;;;;;;5042487;28;20557;-46
2023/04/14 08:14:29;;;;;;;19.10;17.80;;;8.70;99.90;;;;;;5059264;28;20264;-46
2023/04/14 08:16:55;;;;;;;21.20;19.30;;;8.60;99.90;;;;;;5060437;28;20592;-44
2023/04/14 08:19:20;;;;;;;19.97;18.53;;;8.60;99.90;;;;;;5058972;28;20231;-46
2023/04/14 08:21:46;;;;;;;20.87;19.37;;;8.60;99.90;;;;;;5058999;28;20217;-46
2023/04/14 08:24:11;;;;;;;19.60;18.20;;;8.50;99.90;;;;;;5057930;28;20190;-49
2023/04/14 08:26:37;;;;;;;26.30;24.10;;;8.60;99.90;;;;;;5041523;28;20192;-47
2023/04/14 08:29:03;;;;;;;22.63;21.00;;;8.50;99.90;;;;;;5059622;28;20218;-43
2023/04/14 08:31:28;;;;;;;31.63;28.90;;;8.50;99.90;;;;;;5059108;28;20215;-45
2023/04/14 08:33:54;;;;;;;19.13;17.83;;;8.60;99.90;;;;;;5059222;28;20194;-46
2023/04/14 08:36:20;;;;;;;18.80;17.60;;;8.60;99.90;;;;;;5060252;28;20190;-48
2023/04/14 08:38:46;;;;;;;18.40;17.00;;;8.70;99.90;;;;;;5059491;28;20185;-47
2023/04/14 08:41:13;;;;;;;18.67;17.37;;;8.70;99.90;;;;;;5058800;28;20475;-46
2023/04/14 08:43:39;;;;;;;19.67;18.27;;;8.70;99.90;;;;;;5059720;28;20185;-45
2023/04/14 08:46:06;;;;;;;19.20;18.00;;;8.70;99.90;;;;;;5059322;28;20515;-51
2023/04/14 08:48:35;;;;;;;22.10;20.37;;;8.70;99.90;;;;;;5059471;28;20755;-48
2023/04/14 08:51:18;;;;;;;18.40;17.07;;;8.70;99.90;;;;;;5059960;28;20427;-46
2023/04/14 08:53:47;;;;;;;18.97;17.40;;;8.70;99.90;;;;;;5058418;28;21005;-43
2023/04/14 08:56:16;;;;;;;49.83;44.53;;;8.70;99.90;;;;;;5059646;28;20455;-49
2023/04/14 08:58:43;;;;;;;19.20;17.97;;;8.70;99.90;;;;;;5058234;28;20435;-46
2023/04/14 09:01:10;;;;;;;18.93;17.60;;;8.70;99.90;;;;;;5059197;28;20499;-44
2023/04/14 09:03:36;;;;;;;20.17;18.70;;;8.70;99.90;;;;;;5059153;28;20443;-48
2023/04/14 09:06:04;;;;;;;18.37;17.10;;;8.70;99.90;;;;;;5059670;28;20439;-46
2023/04/14 09:08:32;;;;;;;20.67;19.07;;;8.70;99.90;;;;;;5058887;28;20439;-47
2023/04/14 09:11:02;;;;;;;25.77;23.97;;;8.70;99.90;;;;;;5058563;28;20446;-45
2023/04/14 09:13:29;;;;;;;23.50;21.90;;;8.70;99.90;;;;;;5058574;28;20484;-46
2023/04/14 09:15:56;;;;;;;22.70;21.00;;;8.60;99.90;;;;;;5059605;28;20494;-48
2023/04/14 09:18:23;;;;;;;23.80;22.10;;;8.60;99.90;;;;;;5058507;28;20447;-45
2023/04/14 09:20:48;;;;;;;26.90;24.80;;;8.60;99.90;;;;;;5057952;28;20477;-45
2023/04/14 09:23:14;;;;;;;23.10;21.40;;;8.50;99.90;;;;;;5059189;28;20486;-47
2023/04/14 09:25:41;;;;;;;23.57;21.90;;;8.50;99.90;;;;;;5058316;28;20228;-45
2023/04/14 09:28:07;;;;;;;22.70;20.77;;;8.50;99.90;;;;;;5039512;28;20193;-48
2023/04/14 09:30:33;;;;;;;31.63;29.20;;;8.50;99.90;;;;;;5058874;28;20994;-47
2023/04/14 09:33:03;;;;;;;26.00;24.10;;;8.50;99.90;;;;;;5058159;28;20443;-45
2023/04/14 09:35:44;;;;;;;24.97;23.13;;;8.50;99.90;;;;;;5058320;28;20439;-48
2023/04/14 09:38:10;;;;;;;47.03;42.60;;;8.50;99.90;;;;;;5059816;28;20415;-46
2023/04/14 09:40:37;;;;;;;22.37;20.87;;;8.50;99.90;;;;;;5058161;28;20987;-45
2023/04/14 09:43:03;;;;;;;21.50;20.00;;;8.40;99.90;;;;;;5058647;28;20443;-47
2023/04/14 09:45:43;;;;;;;24.43;22.40;;;8.50;99.90;;;;;;5058527;28;20469;-45
2023/04/14 09:48:10;;;;;;;20.10;18.80;;;8.60;99.90;;;;;;5059313;28;20939;-47
2023/04/14 09:50:54;;;;;;;19.00;17.70;;;8.70;99.90;;;;;;5058364;28;20534;-46
2023/04/14 09:53:34;;;;;;;18.90;17.50;;;8.70;99.90;;;;;;5059219;28;20434;-47
2023/04/14 09:56:03;;;;;;;20.20;18.80;;;8.70;99.90;;;;;;5058890;28;20790;-46
2023/04/14 09:58:34;;;;;;;30.70;28.20;;;8.60;99.90;;;;;;5056363;28;20559;-47
2023/04/14 10:01:09;;;;;;;19.37;18.07;;;8.60;99.90;;;;;;5057947;28;20527;-48
2023/04/14 10:03:38;;;;;;;18.70;17.60;;;8.60;99.90;;;;;;5040553;28;20441;-45
2023/04/14 10:06:09;;;;;;;19.80;18.47;;;8.50;99.90;;;;;;5058251;28;20435;-44
2023/04/14 10:08:40;;;;;;;19.30;18.00;;;8.60;99.90;;;;;;5059040;28;20431;-48
2023/04/14 10:11:15;;;;;;;19.40;18.20;;;8.60;99.90;;;;;;5058399;28;20748;-44
2023/04/14 10:13:42;;;;;;;19.50;18.17;;;8.50;99.90;;;;;;5058301;28;20972;-47
2023/04/14 10:16:07;;;;;;;20.07;18.67;;;8.50;99.90;;;;;;5058138;28;20433;-45
2023/04/14 10:18:34;;;;;;;19.10;17.83;;;8.50;99.90;;;;;;5040410;28;20455;-47
2023/04/14 10:21:02;;;;;;;17.60;16.50;;;8.50;99.90;;;;;;5057957;28;20205;-46
2023/04/14 10:23:30;;;;;;;18.60;17.40;;;8.60;99.90;;;;;;5058149;28;20482;-44
2023/04/14 10:25:56;;;;;;;21.13;19.53;;;8.60;99.90;;;;;;5057704;28;20430;-45
2023/04/14 10:28:23;;;;;;;19.13;17.63;;;8.60;99.90;;;;;;5056957;28;20435;-49
2023/04/14 10:30:51;;;;;;;20.10;18.60;;;8.60;99.90;;;;;;5056812;28;20440;-45
2023/04/14 10:33:17;;;;;;;20.13;18.67;;;8.70;99.90;;;;;;5058432;28;20431;-47
2023/04/14 10:35:46;;;;;;;17.77;16.67;;;8.70;99.90;;;;;;5057631;28;20913;-47
2023/04/14 10:38:12;;;;;;;18.60;17.40;;;8.60;99.90;;;;;;5058300;28;20455;-46
2023/04/14 10:40:50;;;;;;;17.90;16.70;;;8.70;99.90;;;;;;5058417;28;20816;-45
2023/04/14 10:43:15;;;;;;;18.67;17.50;;;8.70;99.90;;;;;;5057395;28;20189;-46
2023/04/14 10:45:55;;;;;;;18.37;17.00;;;8.70;99.90;;;;;;5059584;28;20519;-44
2023/04/14 10:48:25;;;;;;;18.10;17.00;;;8.70;99.90;;;;;;5062576;28;20284;-47
2023/04/14 10:50:55;;;;;;;18.80;17.53;;;8.70;99.90;;;;;;5061837;28;20441;-48
2023/04/14 10:53:25;;;;;;;16.30;15.30;;;8.80;99.90;;;;;;5062250;28;20435;-44
2023/04/14 10:55:54;;;;;;;18.07;16.77;;;8.90;99.90;;;;;;5061632;28;20439;-47
2023/04/14 10:58:22;;;;;;;18.07;16.97;;;8.80;99.90;;;;;;5061369;28;20946;-46
2023/04/14 11:00:48;;;;;;;18.27;17.10;;;8.80;99.90;;;;;;5061540;28;20501;-49
2023/04/14 11:03:17;;;;;;;18.83;17.63;;;8.90;99.90;;;;;;5043041;28;21016;-51
2023/04/14 11:05:50;;;;;;;18.50;17.10;;;8.90;99.90;;;;;;5043815;28;21083;-46
2023/04/14 11:08:26;;;;;;;17.90;16.60;;;8.80;99.90;;;;;;5061795;28;20460;-47
2023/04/14 11:11:03;;;;;;;17.50;16.50;;;8.80;99.90;;;;;;5061708;28;20440;-45
2023/04/14 11:13:29;;;;;;;18.20;17.03;;;8.80;99.90;;;;;;5043199;28;21108;-48
2023/04/14 11:16:03;;;;;;;18.50;17.30;;;8.80;99.90;;;;;;5061137;28;21674;-48
2023/04/14 11:18:28;;;;;;;18.87;17.57;;;8.80;99.90;;;;;;5059955;28;20470;-47
2023/04/14 11:21:08;;;;;;;18.57;17.30;;;8.80;99.90;;;;;;5061424;28;20471;-46
2023/04/14 11:23:35;;;;;;;17.33;16.20;;;8.80;99.90;;;;;;5061573;28;20228;-47
2023/04/14 11:26:03;;;;;;;17.90;16.80;;;8.80;99.90;;;;;;5061419;28;20542;-47
2023/04/14 11:28:34;;;;;;;16.70;15.70;;;8.80;99.90;;;;;;5061342;28;20841;-46
2023/04/14 11:31:03;;;;;;;17.60;16.50;;;8.70;99.90;;;;;;5060586;28;20508;-48
2023/04/14 11:33:30;;;;;;;18.77;17.47;;;8.80;99.90;;;;;;5061242;28;20435;-47
2023/04/14 11:35:57;;;;;;;17.80;16.50;;;8.80;99.90;;;;;;5060093;28;20453;-45
2023/04/14 11:38:23;;;;;;;17.37;16.33;;;8.60;99.90;;;;;;5059908;28;20944;-49
2023/04/14 11:40:52;;;;;;;17.80;16.60;;;8.70;99.90;;;;;;5060890;28;20513;-48
2023/04/14 11:43:18;;;;;;;18.07;16.87;;;8.70;99.90;;;;;;5060791;28;20521;-48
2023/04/14 11:45:45;;;;;;;16.97;15.87;;;8.60;99.90;;;;;;5059925;28;20506;-45
2023/04/14 11:48:12;;;;;;;81.80;75.17;;;8.60;99.90;;;;;;5060504;28;20968;-42
2023/04/14 11:50:37;;;;;;;25.00;22.93;;;8.50;99.90;;;;;;5060401;28;20940;-43
2023/04/14 11:53:17;;;;;;;18.20;17.00;;;8.50;99.90;;;;;;5060108;28;20447;-46
2023/04/14 11:55:48;;;;;;;20.10;18.80;;;8.60;99.90;;;;;;5060278;28;20492;-43
2023/04/14 11:58:18;;;;;;;25.57;23.57;;;8.60;99.90;;;;;;5042502;28;20443;-47
2023/04/14 12:00:47;;;;;;;42.43;37.80;;;8.60;99.90;;;;;;5060567;28;20524;-42
2023/04/14 12:03:13;;;;;;;19.77;18.47;;;8.60;99.90;;;;;;5060572;28;20551;-42
2023/04/14 12:05:39;;;;;;;25.87;23.90;;;8.60;99.90;;;;;;5059762;28;20714;-42
2023/04/14 12:08:07;;;;;;;21.23;19.60;;;8.70;99.90;;;;;;5061003;28;20189;-44
2023/04/14 12:10:36;;;;;;;44.33;40.03;;;8.70;99.90;;;;;;5060091;28;20519;-44
2023/04/14 12:13:02;;;;;;;26.70;24.63;;;8.70;99.90;;;;;;5061111;28;20814;-43
2023/04/14 12:15:35;;;;;;;35.37;32.37;;;8.70;99.90;;;;;;5058508;28;20871;-42
2023/04/14 12:18:02;;;;;;;21.40;19.90;;;8.70;99.90;;;;;;5059115;28;20528;-44
2023/04/14 12:20:29;;;;;;;21.00;19.60;;;8.60;99.90;;;;;;5059805;28;20950;-43
2023/04/14 12:23:02;;;;;;;37.97;34.87;;;8.70;99.90;;;;;;5059990;28;20483;-41
2023/04/14 12:25:34;;;;;;;24.97;23.27;;;8.70;99.90;;;;;;5059865;28;20492;-42
2023/04/14 12:28:05;;;;;;;92.93;83.70;;;8.70;99.90;;;;;;5060292;28;20585;-45
2023/04/14 12:30:32;;;;;;;27.87;25.47;;;8.70;99.90;;;;;;5060236;28;20807;-42
2023/04/14 12:32:57;;;;;;;22.60;20.70;;;8.80;99.90;;;;;;5058488;28;20477;-48
2023/04/14 12:35:23;;;;;;;23.90;22.03;;;8.80;99.90;;;;;;5059794;28;21159;-43
2023/04/14 12:37:50;;;;;;;22.07;20.47;;;8.80;99.90;;;;;;5041245;28;20193;-42
2023/04/14 12:40:17;;;;;;;24.23;22.40;;;8.80;99.90;;;;;;5059250;28;20185;-42